Time;durP1;ratioP1;P1;durP2;ratioP2;P2;SDS_P1;SDS_P2;PMS_P1;PMS_P2;Temp;Humidity;BMP_temperature;BMP_pressure;BME280_temperature;BME280_humidity;BME280_pressure;Samples;Min_cycle;Max_cycle;Signal;HPM_P1;HPM_P2
2021/12/10 00:00:44;;;;;;;0.00;0.00;;;2.70;99.90;;;;;;5075195;28;20025;-47
2021/12/10 00:03:32;;;;;;;0.00;0.00;;;2.60;99.90;;;;;;5075386;28;20044;-47
2021/12/10 00:06:22;;;;;;;0.00;0.00;;;2.70;99.90;;;;;;5075214;28;20031;-47
2021/12/10 00:08:57;;;;;;;0.00;0.00;;;2.70;99.90;;;;;;5074068;28;20025;-47
2021/12/10 00:11:54;;;;;;;0.00;0.00;;;2.60;99.90;;;;;;5068570;28;20065;-47
2021/12/10 00:14:29;;;;;;;0.00;0.00;;;2.60;99.90;;;;;;5066813;28;20047;-48
2021/12/10 00:16:55;;;;;;;0.00;0.00;;;2.60;99.90;;;;;;5074908;28;20028;-48
2021/12/10 00:21:48;;;;;;;0.00;0.00;;;2.70;99.90;;;;;;5075190;28;20039;-48
2021/12/10 00:24:16;;;;;;;0.00;0.00;;;2.60;99.90;;;;;;5075130;28;20081;-47
2021/12/10 00:26:42;;;;;;;0.00;0.00;;;2.50;99.90;;;;;;5075134;28;20096;-47
2021/12/10 00:29:08;;;;;;;0.00;0.00;;;2.50;99.90;;;;;;5075021;28;20055;-50
2021/12/10 00:31:47;;;;;;;0.00;0.00;;;2.50;99.90;;;;;;5075043;28;20104;-50
2021/12/10 00:34:44;;;;;;;0.00;0.00;;;2.50;99.90;;;;;;5074818;28;20028;-47
2021/12/10 00:37:12;;;;;;;0.00;0.00;;;2.50;99.90;;;;;;5072439;28;20052;-47
2021/12/10 00:39:46;;;;;;;0.00;0.00;;;2.60;99.90;;;;;;5074519;28;20059;-48
2021/12/10 00:42:18;;;;;;;0.00;0.00;;;2.70;99.90;;;;;;5074475;28;20078;-47
2021/12/10 00:44:44;;;;;;;0.00;0.00;;;2.70;99.90;;;;;;5074574;28;20025;-48
2021/12/10 00:47:09;;;;;;;0.00;0.00;;;2.60;99.90;;;;;;5078942;28;20368;-48
2021/12/10 00:49:36;;;;;;;0.00;0.00;;;2.70;99.90;;;;;;5101827;28;20031;-46
2021/12/10 00:52:04;;;;;;;0.00;0.00;;;2.70;99.90;;;;;;5115125;28;20019;-51
2021/12/10 00:54:30;;;;;;;0.00;0.00;;;2.70;99.90;;;;;;5094686;28;20482;-47
2021/12/10 00:56:55;;;;;;;0.00;0.00;;;2.70;99.90;;;;;;5092769;28;20028;-48
2021/12/10 00:59:21;;;;;;;0.00;0.00;;;2.70;99.90;;;;;;5084426;28;20107;-49
2021/12/10 01:01:48;;;;;;;0.00;0.00;;;2.70;99.90;;;;;;5088368;28;20020;-49
2021/12/10 01:04:21;;;;;;;0.00;0.00;;;2.70;99.90;;;;;;5092885;28;20047;-49
2021/12/10 01:06:49;;;;;;;0.00;0.00;;;2.70;99.90;;;;;;5089030;28;20066;-46
2021/12/10 01:09:19;;;;;;;0.00;0.00;;;2.70;99.90;;;;;;5092307;28;20089;-51
2021/12/10 01:11:54;;;;;;;0.00;0.00;;;2.80;99.90;;;;;;5090870;28;20020;-49
2021/12/10 01:14:40;;;;;;;0.00;0.00;;;2.70;99.90;;;;;;5092312;28;20031;-51
2021/12/10 01:26:07;;;;;;;0.00;0.00;;;2.50;99.90;;;;;;5092444;28;20157;-50
2021/12/10 01:28:12;;;;;;;0.00;0.00;;;2.40;99.90;;;;;;5088998;28;20364;-48
2021/12/10 01:30:40;;;;;;;0.00;0.00;;;2.50;99.90;;;;;;5091471;28;20465;-51
2021/12/10 01:33:10;;;;;;;0.00;0.00;;;2.50;99.90;;;;;;5091549;28;20023;-47
2021/12/10 01:35:41;;;;;;;34.25;10.80;;;2.50;99.90;;;;;;5088147;28;20402;-49
2021/12/10 01:38:09;;;;;;;0.00;0.00;;;2.40;99.90;;;;;;5093021;28;20467;-46
2021/12/10 01:40:37;;;;;;;0.00;0.00;;;2.40;99.90;;;;;;5089496;28;20054;-46
2021/12/10 01:43:07;;;;;;;0.00;0.00;;;2.20;99.90;;;;;;5078399;28;20075;-49
2021/12/10 01:45:46;;;;;;;0.00;0.00;;;2.20;99.90;;;;;;5077799;28;20036;-48
2021/12/10 01:48:16;;;;;;;0.00;0.00;;;2.10;99.90;;;;;;5114161;28;20076;-47
2021/12/10 01:50:41;;;;;;;0.00;0.00;;;2.10;99.90;;;;;;5107626;27;20024;-47
2021/12/10 01:53:10;;;;;;;0.00;0.00;;;2.00;99.90;;;;;;5087933;28;20032;-48
2021/12/10 01:55:39;;;;;;;0.00;0.00;;;1.90;99.90;;;;;;5093836;28;20030;-48
2021/12/10 01:58:07;;;;;;;0.00;0.00;;;1.80;99.90;;;;;;5099017;28;20055;-46
2021/12/10 02:00:37;;;;;;;1.10;1.10;;;1.80;99.90;;;;;;5113767;28;20391;-46
2021/12/10 02:03:03;;;;;;;0.00;0.00;;;1.70;99.90;;;;;;5096657;28;20068;-48
2021/12/10 02:05:31;;;;;;;0.00;0.00;;;1.60;99.90;;;;;;5073621;28;20017;-45
2021/12/10 02:07:58;;;;;;;0.00;0.00;;;1.60;99.90;;;;;;5072993;28;20025;-46
2021/12/10 02:10:26;;;;;;;0.00;0.00;;;1.50;99.90;;;;;;5072463;28;20479;-49
2021/12/10 02:12:53;;;;;;;0.00;0.00;;;1.40;99.90;;;;;;5072802;28;20033;-46
2021/12/10 02:15:21;;;;;;;0.00;0.00;;;1.30;99.90;;;;;;5073443;28;20029;-51
2021/12/10 02:17:49;;;;;;;0.00;0.00;;;1.30;99.90;;;;;;5073395;28;20033;-48
2021/12/10 02:20:31;;;;;;;0.00;0.00;;;1.30;99.90;;;;;;5073826;28;20028;-48
2021/12/10 02:22:58;;;;;;;0.00;0.00;;;1.30;99.90;;;;;;5073216;28;20024;-47
2021/12/10 02:25:28;;;;;;;0.00;0.00;;;1.30;99.90;;;;;;5073369;28;20029;-48
2021/12/10 02:27:53;;;;;;;0.00;0.00;;;1.20;99.90;;;;;;5073029;28;20033;-46
2021/12/10 02:30:21;;;;;;;0.00;0.00;;;1.30;99.90;;;;;;5074247;28;20368;-50
2021/12/10 02:32:47;;;;;;;0.00;0.00;;;1.20;99.90;;;;;;5071993;28;20024;-49
2021/12/10 02:35:15;;;;;;;0.00;0.00;;;1.20;99.90;;;;;;5071257;28;20028;-50
2021/12/10 02:37:44;;;;;;;0.00;0.00;;;1.10;99.90;;;;;;5071348;28;20025;-47
2021/12/10 02:40:12;;;;;;;0.00;0.00;;;1.10;99.90;;;;;;5074968;28;20096;-52
2021/12/10 02:42:38;;;;;;;0.00;0.00;;;1.10;99.90;;;;;;5074767;28;20031;-50
2021/12/10 02:45:09;;;;;;;0.00;0.00;;;1.10;99.90;;;;;;5075252;28;20060;-45
2021/12/10 02:47:36;;;;;;;0.00;0.00;;;1.00;99.90;;;;;;5074831;28;20031;-48
2021/12/10 02:50:04;;;;;;;0.00;0.00;;;1.00;99.90;;;;;;5077147;28;20028;-49
2021/12/10 02:52:30;;;;;;;0.00;0.00;;;0.90;99.90;;;;;;5076531;28;20024;-47
2021/12/10 02:54:58;;;;;;;0.20;0.20;;;0.90;99.90;;;;;;5076860;28;20079;-49
2021/12/10 02:57:25;;;;;;;0.00;0.00;;;0.90;99.90;;;;;;5076742;28;20032;-51
2021/12/10 02:59:51;;;;;;;0.00;0.00;;;0.90;99.90;;;;;;5076793;28;20031;-47
2021/12/10 03:02:20;;;;;;;0.00;0.00;;;0.80;99.90;;;;;;5076369;28;20032;-48
2021/12/10 03:04:46;;;;;;;0.00;0.00;;;0.80;99.90;;;;;;5058798;28;20037;-49
2021/12/10 03:07:14;;;;;;;0.00;0.00;;;0.80;99.90;;;;;;5056648;28;20036;-47
2021/12/10 03:09:43;;;;;;;0.00;0.00;;;0.80;99.90;;;;;;5056256;28;20029;-49
2021/12/10 03:12:10;;;;;;;0.00;0.00;;;0.70;99.90;;;;;;5056653;28;20464;-48
2021/12/10 03:14:39;;;;;;;0.00;0.00;;;0.70;99.90;;;;;;5056253;28;20047;-48
2021/12/10 03:17:13;;;;;;;0.00;0.00;;;0.80;99.90;;;;;;5055968;28;20033;-47
2021/12/10 03:19:38;;;;;;;0.00;0.00;;;0.70;99.90;;;;;;5056249;28;20028;-48
2021/12/10 03:22:06;;;;;;;0.00;0.00;;;0.70;99.90;;;;;;5056357;28;20383;-49
2021/12/10 03:24:32;;;;;;;0.00;0.00;;;0.60;99.90;;;;;;5056578;28;20025;-47
2021/12/10 03:27:02;;;;;;;0.00;0.00;;;0.60;99.90;;;;;;5056209;28;20031;-47
2021/12/10 03:29:28;;;;;;;0.00;0.00;;;0.60;99.90;;;;;;5056230;28;20075;-45
2021/12/10 03:31:56;;;;;;;0.00;0.00;;;0.60;99.90;;;;;;5055942;28;20417;-46
2021/12/10 03:34:22;;;;;;;0.00;0.00;;;0.60;99.90;;;;;;5056205;28;20027;-47
2021/12/10 03:36:52;;;;;;;0.00;0.00;;;0.50;99.90;;;;;;5055808;28;20463;-48
2021/12/10 03:39:22;;;;;;;0.00;0.00;;;0.50;99.90;;;;;;5055755;28;20112;-49
2021/12/10 03:41:48;;;;;;;0.00;0.00;;;0.30;99.90;;;;;;5055768;28;20021;-48
2021/12/10 03:44:15;;;;;;;0.00;0.00;;;0.30;99.90;;;;;;5047961;28;20024;-46
2021/12/10 03:46:42;;;;;;;0.00;0.00;;;0.30;99.90;;;;;;5055959;28;20086;-47
2021/12/10 03:49:09;;;;;;;0.00;0.00;;;0.40;99.90;;;;;;5055348;28;20094;-48
2021/12/10 03:51:36;;;;;;;0.00;0.00;;;0.30;99.90;;;;;;5055676;28;20222;-50
2021/12/10 03:54:05;;;;;;;0.00;0.00;;;0.20;99.90;;;;;;5055826;28;20123;-50
2021/12/10 03:56:32;;;;;;;0.00;0.00;;;0.20;99.90;;;;;;5055758;28;20479;-50
2021/12/10 03:59:02;;;;;;;0.00;0.00;;;0.20;99.90;;;;;;5055621;28;20112;-50
2021/12/10 04:01:31;;;;;;;0.00;0.00;;;0.20;99.90;;;;;;5055684;28;20021;-51
2021/12/10 04:03:59;;;;;;;0.00;0.00;;;0.20;99.90;;;;;;5055493;28;20124;-45
2021/12/10 04:06:27;;;;;;;0.00;0.00;;;0.20;99.90;;;;;;5055558;28;20068;-49
2021/12/10 04:08:53;;;;;;;0.00;0.00;;;0.10;99.90;;;;;;5055360;28;20393;-50
2021/12/10 04:11:20;;;;;;;0.00;0.00;;;0.10;99.90;;;;;;5055024;28;20021;-48
2021/12/10 04:13:49;;;;;;;0.00;0.00;;;0.10;99.90;;;;;;5055034;28;20029;-46
2021/12/10 04:16:17;;;;;;;0.00;0.00;;;0.00;99.90;;;;;;5055078;28;20047;-48
2021/12/10 04:18:44;;;;;;;0.00;0.00;;;0.00;99.90;;;;;;5055222;28;20029;-46
2021/12/10 04:21:12;;;;;;;0.00;0.00;;;-0.10;99.90;;;;;;5054963;28;20056;-47
2021/12/10 04:23:39;;;;;;;0.00;0.00;;;0.00;99.90;;;;;;5055150;28;20130;-48
2021/12/10 04:26:05;;;;;;;0.00;0.00;;;0.00;99.90;;;;;;5055068;28;20063;-46
2021/12/10 04:28:32;;;;;;;0.00;0.00;;;-0.10;99.90;;;;;;5054839;28;20056;-47
2021/12/10 04:30:58;;;;;;;0.00;0.00;;;-0.10;99.90;;;;;;5054690;28;20094;-49
2021/12/10 04:33:26;;;;;;;0.00;0.00;;;-0.10;99.90;;;;;;5054984;28;20456;-46
2021/12/10 04:35:53;;;;;;;0.00;0.00;;;-0.10;99.90;;;;;;5054833;28;20025;-48
2021/12/10 04:38:21;;;;;;;0.00;0.00;;;-0.20;99.90;;;;;;5054471;28;20040;-47
2021/12/10 04:40:49;;;;;;;0.00;0.00;;;-0.10;99.90;;;;;;5054849;28;20036;-48
2021/12/10 04:43:18;;;;;;;0.00;0.00;;;-0.10;99.90;;;;;;5054454;28;20338;-48
2021/12/10 04:45:44;;;;;;;0.00;0.00;;;-0.10;99.90;;;;;;5054502;28;20388;-46
2021/12/10 04:48:10;;;;;;;0.00;0.00;;;-0.10;99.90;;;;;;5054464;28;20031;-48
2021/12/10 04:50:36;;;;;;;2.83;0.38;;;-0.10;99.90;;;;;;5054237;28;20021;-48
2021/12/10 04:53:06;;;;;;;0.00;0.00;;;-0.10;99.90;;;;;;5054492;28;20032;-46
2021/12/10 04:55:31;;;;;;;0.00;0.00;;;-0.10;99.90;;;;;;5054154;28;20391;-46
2021/12/10 04:57:57;;;;;;;0.00;0.00;;;-0.20;99.90;;;;;;5054073;28;20033;-46
2021/12/10 05:00:27;;;;;;;0.00;0.00;;;-0.20;99.90;;;;;;5054050;28;20060;-50
2021/12/10 05:02:55;;;;;;;0.00;0.00;;;-0.30;99.90;;;;;;5054380;28;20024;-47
2021/12/10 05:05:21;;;;;;;0.28;0.28;;;-0.30;99.90;;;;;;5054238;28;20029;-46
2021/12/10 05:07:47;;;;;;;0.00;0.00;;;-0.20;99.90;;;;;;5032955;28;20482;-47
2021/12/10 05:10:14;;;;;;;0.40;0.38;;;-0.30;99.90;;;;;;5054021;28;20029;-48
2021/12/10 05:12:41;;;;;;;0.00;0.00;;;-0.40;99.90;;;;;;5053718;28;20456;-51
2021/12/10 05:15:10;;;;;;;0.00;0.00;;;-0.40;99.90;;;;;;5053804;28;20028;-47
2021/12/10 05:17:36;;;;;;;0.00;0.00;;;-0.50;99.90;;;;;;5053628;28;20040;-45
2021/12/10 05:20:12;;;;;;;0.00;0.00;;;-0.40;99.90;;;;;;5054108;28;20025;-46
2021/12/10 05:22:44;;;;;;;0.00;0.00;;;-0.30;99.90;;;;;;5054094;28;20017;-47
2021/12/10 05:25:10;;;;;;;0.00;0.00;;;-0.30;99.90;;;;;;5054104;28;20102;-47
2021/12/10 05:27:36;;;;;;;0.00;0.00;;;-0.30;99.90;;;;;;5053695;28;20029;-48
2021/12/10 05:30:05;;;;;;;0.00;0.00;;;-0.30;99.90;;;;;;5053505;28;20021;-47
2021/12/10 05:32:33;;;;;;;0.00;0.00;;;-0.30;99.90;;;;;;5053554;28;20456;-48
2021/12/10 05:34:59;;;;;;;0.00;0.00;;;-0.30;99.90;;;;;;5053346;28;20033;-51
2021/12/10 05:37:25;;;;;;;0.00;0.00;;;-0.30;99.90;;;;;;5056570;28;20542;-49
2021/12/10 05:39:51;;;;;;;0.00;0.00;;;-0.40;99.90;;;;;;5066063;28;20104;-47
2021/12/10 05:42:17;;;;;;;0.00;0.00;;;-0.40;99.90;;;;;;5068611;28;20032;-50
2021/12/10 05:44:43;;;;;;;0.00;0.00;;;-0.40;99.90;;;;;;5070253;28;20056;-50
2021/12/10 05:47:09;;;;;;;0.00;0.00;;;-0.50;99.90;;;;;;5059995;28;20037;-49
2021/12/10 05:49:35;;;;;;;0.00;0.00;;;-0.50;99.90;;;;;;5060378;28;20035;-46
2021/12/10 05:52:01;;;;;;;0.00;0.00;;;-0.50;99.90;;;;;;5068599;28;20430;-47
2021/12/10 05:54:27;;;;;;;0.00;0.00;;;-0.50;99.90;;;;;;5065368;28;20061;-46
2021/12/10 05:56:53;;;;;;;0.00;0.00;;;-0.50;99.90;;;;;;5093615;28;20031;-49
2021/12/10 05:59:18;;;;;;;0.00;0.00;;;-0.50;99.90;;;;;;5082261;28;20439;-47
2021/12/10 06:01:44;;;;;;;0.00;0.00;;;-0.60;99.90;;;;;;5071326;28;20093;-46
2021/12/10 06:04:10;;;;;;;0.00;0.00;;;-0.60;99.90;;;;;;5084596;28;20455;-46
2021/12/10 06:06:36;;;;;;;0.00;0.00;;;-0.60;99.90;;;;;;5073895;28;20055;-44
2021/12/10 06:09:06;;;;;;;0.00;0.00;;;-0.60;99.90;;;;;;5077669;28;20399;-48
2021/12/10 06:11:33;;;;;;;0.00;0.00;;;-0.60;99.90;;;;;;5113251;28;20111;-52
2021/12/10 06:13:59;;;;;;;0.00;0.00;;;-0.60;99.90;;;;;;5101712;28;20483;-46
2021/12/10 06:16:25;;;;;;;0.00;0.00;;;-0.70;99.90;;;;;;5089809;28;20102;-46
2021/12/10 06:18:51;;;;;;;0.00;0.00;;;-0.80;99.90;;;;;;5085695;28;20162;-49
2021/12/10 06:21:17;;;;;;;0.00;0.00;;;-0.90;99.90;;;;;;5078559;28;20399;-45
2021/12/10 06:23:43;;;;;;;0.00;0.00;;;-0.80;99.90;;;;;;5076750;28;20418;-46
2021/12/10 06:26:09;;;;;;;0.00;0.00;;;-0.80;99.90;;;;;;5076588;28;20021;-47
2021/12/10 06:28:36;;;;;;;0.00;0.00;;;-0.70;99.90;;;;;;5077056;28;20078;-46
2021/12/10 06:31:03;;;;;;;0.00;0.00;;;-0.60;99.90;;;;;;5076638;28;20084;-47
2021/12/10 06:33:29;;;;;;;0.00;0.00;;;-0.50;99.90;;;;;;5076701;28;20047;-46
2021/12/10 06:36:00;;;;;;;0.00;0.00;;;-0.70;99.90;;;;;;5076518;28;20103;-49
2021/12/10 06:38:26;;;;;;;0.00;0.00;;;-0.70;99.90;;;;;;5075914;28;20033;-47
2021/12/10 06:40:53;;;;;;;0.00;0.00;;;-0.70;99.90;;;;;;5076242;28;20025;-47
2021/12/10 06:43:20;;;;;;;0.00;0.00;;;-0.70;99.90;;;;;;5076231;28;20033;-48
2021/12/10 06:45:47;;;;;;;0.00;0.00;;;-0.70;99.90;;;;;;5076498;28;20486;-48
2021/12/10 06:48:14;;;;;;;4.03;3.72;;;-0.80;99.90;;;;;;5076371;28;20077;-48
2021/12/10 06:50:50;;;;;;;0.00;0.00;;;-0.80;99.90;;;;;;5075793;28;20029;-46
2021/12/10 06:53:19;;;;;;;2.08;0.90;;;-0.80;99.90;;;;;;5075888;28;20142;-46
2021/12/10 06:55:46;;;;;;;0.00;0.00;;;-0.70;99.90;;;;;;5075606;28;20032;-49
2021/12/10 06:58:11;;;;;;;0.00;0.00;;;-0.80;99.90;;;;;;5075710;28;20032;-50
2021/12/10 07:00:47;;;;;;;0.00;0.00;;;-0.80;99.90;;;;;;5075615;28;20487;-48
2021/12/10 07:03:20;;;;;;;0.00;0.00;;;-0.80;99.90;;;;;;5075801;28;20047;-46
2021/12/10 07:05:47;;;;;;;0.00;0.00;;;-0.90;99.90;;;;;;5076009;28;20107;-48
2021/12/10 07:08:13;;;;;;;0.22;0.22;;;-0.80;99.90;;;;;;5075628;28;20039;-49
2021/12/10 07:10:39;;;;;;;5.63;2.17;;;-0.80;99.90;;;;;;5075913;28;20028;-47
2021/12/10 07:13:09;;;;;;;2.30;2.20;;;-0.80;99.90;;;;;;5075756;28;20032;-49
2021/12/10 07:15:41;;;;;;;0.00;0.00;;;-0.80;99.90;;;;;;5075493;28;20031;-48
2021/12/10 07:18:08;;;;;;;0.00;0.00;;;-0.70;99.90;;;;;;5075808;28;20118;-45
2021/12/10 07:20:34;;;;;;;0.00;0.00;;;-0.70;99.90;;;;;;5075672;28;20449;-46
2021/12/10 07:23:00;;;;;;;0.00;0.00;;;-0.70;99.90;;;;;;5075302;28;20533;-49
2021/12/10 07:25:26;;;;;;;1.48;1.38;;;-0.70;99.90;;;;;;5074555;28;20025;-47
2021/12/10 07:27:52;;;;;;;0.00;0.00;;;-0.70;99.90;;;;;;5075278;28;20032;-49
2021/12/10 07:30:21;;;;;;;0.00;0.00;;;-0.60;99.90;;;;;;5075132;28;20103;-48
2021/12/10 07:32:46;;;;;;;0.00;0.00;;;-0.60;99.90;;;;;;5075078;28;20062;-47
2021/12/10 07:35:14;;;;;;;0.00;0.00;;;-0.50;99.90;;;;;;5074916;28;20028;-46
2021/12/10 07:37:40;;;;;;;0.32;0.32;;;-0.40;99.90;;;;;;5075020;28;20036;-45
2021/12/10 07:40:09;;;;;;;0.00;0.00;;;-0.40;99.90;;;;;;5075012;28;20032;-49
2021/12/10 07:42:35;;;;;;;0.10;0.10;;;-0.30;99.90;;;;;;5075670;28;20024;-50
2021/12/10 07:45:02;;;;;;;0.00;0.00;;;-0.30;99.90;;;;;;5075057;28;20141;-51
2021/12/10 07:47:33;;;;;;;0.00;0.00;;;-0.20;99.90;;;;;;5074817;28;20025;-45
2021/12/10 07:49:59;;;;;;;;;;;-0.10;99.90;;;;;;5075698;28;20379;-48
2021/12/10 07:52:27;;;;;;;0.08;0.08;;;-0.10;99.90;;;;;;5075044;28;19914;-49
2021/12/10 07:54:53;;;;;;;0.00;0.00;;;-0.10;99.90;;;;;;5075111;28;20017;-48
2021/12/10 07:57:20;;;;;;;0.00;0.00;;;0.00;99.90;;;;;;5074752;28;20036;-53
2021/12/10 07:59:49;;;;;;;0.00;0.00;;;0.10;99.90;;;;;;5074949;28;20028;-46
2021/12/10 08:02:16;;;;;;;0.00;0.00;;;0.10;99.90;;;;;;5074950;28;20024;-48
2021/12/10 08:04:41;;;;;;;0.52;0.47;;;0.20;99.90;;;;;;5074368;28;20461;-46
2021/12/10 08:07:07;;;;;;;0.00;0.00;;;0.30;99.90;;;;;;5056690;28;20120;-48
2021/12/10 08:09:33;;;;;;;0.20;0.20;;;0.20;99.90;;;;;;5074592;28;20051;-46
2021/12/10 08:11:59;;;;;;;0.00;0.00;;;0.30;99.90;;;;;;5074474;28;20028;-49
2021/12/10 08:14:25;;;;;;;0.00;0.00;;;0.40;99.90;;;;;;5090439;28;20035;-47
2021/12/10 08:16:50;;;;;;;0.00;0.00;;;0.50;99.90;;;;;;5074312;28;20032;-47
2021/12/10 08:19:16;;;;;;;0.00;0.00;;;0.60;99.90;;;;;;5056522;28;20036;-46
2021/12/10 08:21:43;;;;;;;0.00;0.00;;;0.70;99.90;;;;;;5075024;28;20100;-46
2021/12/10 08:24:09;;;;;;;0.00;0.00;;;0.80;99.90;;;;;;5074385;28;20068;-50
2021/12/10 08:26:36;;;;;;;0.00;0.00;;;0.80;99.90;;;;;;5073878;28;20054;-46
2021/12/10 08:29:03;;;;;;;0.10;0.10;;;0.80;99.90;;;;;;5074218;28;20032;-46
2021/12/10 08:31:29;;;;;;;0.00;0.00;;;0.80;99.90;;;;;;5074617;28;20043;-47
2021/12/10 08:33:55;;;;;;;0.00;0.00;;;0.90;99.90;;;;;;5074441;28;20062;-50
2021/12/10 08:36:23;;;;;;;1.70;1.15;;;0.90;99.90;;;;;;5074263;28;20024;-46
2021/12/10 08:38:50;;;;;;;0.00;0.00;;;1.20;99.90;;;;;;5056246;28;20490;-46
2021/12/10 08:41:23;;;;;;;0.65;0.30;;;1.10;99.90;;;;;;5074103;28;20060;-49
2021/12/10 08:43:50;;;;;;;0.00;0.00;;;1.10;99.90;;;;;;5074146;28;20093;-49
2021/12/10 08:46:16;;;;;;;0.05;0.05;;;1.10;99.90;;;;;;5074400;28;20059;-48
2021/12/10 08:48:43;;;;;;;0.00;0.00;;;1.00;99.90;;;;;;5074246;28;20452;-46
2021/12/10 08:51:24;;;;;;;0.00;0.00;;;0.80;99.90;;;;;;5074055;28;20029;-49
2021/12/10 08:53:50;;;;;;;0.00;0.00;;;0.80;99.90;;;;;;5073931;28;20056;-47
2021/12/10 08:56:16;;;;;;;0.57;0.55;;;0.80;99.90;;;;;;5073441;28;20514;-47
2021/12/10 08:58:43;;;;;;;0.00;0.00;;;0.90;99.90;;;;;;5072975;28;20035;-48
2021/12/10 09:01:15;;;;;;;0.00;0.00;;;1.00;99.90;;;;;;5073646;28;20033;-47
2021/12/10 09:03:44;;;;;;;0.00;0.00;;;1.20;99.90;;;;;;5073338;28;20049;-49
2021/12/10 09:06:11;;;;;;;0.20;0.10;;;1.40;99.90;;;;;;5073471;28;20131;-49
2021/12/10 09:08:37;;;;;;;0.00;0.00;;;1.70;99.90;;;;;;5073692;28;20035;-48
2021/12/10 09:11:04;;;;;;;0.13;0.13;;;2.00;99.90;;;;;;5073408;28;20028;-48
2021/12/10 09:13:30;;;;;;;0.00;0.00;;;2.20;99.90;;;;;;5073343;28;20206;-47
2021/12/10 09:16:01;;;;;;;0.00;0.00;;;2.20;99.90;;;;;;5073300;28;20029;-47
2021/12/10 09:18:28;;;;;;;0.47;0.43;;;2.40;99.90;;;;;;5073372;28;20036;-46
2021/12/10 09:20:57;;;;;;;0.00;0.00;;;2.30;99.90;;;;;;5073350;28;20028;-46
2021/12/10 09:23:25;;;;;;;4.10;2.17;;;2.40;99.90;;;;;;5073048;28;20453;-46
2021/12/10 09:25:53;;;;;;;0.00;0.00;;;2.60;99.90;;;;;;5073474;28;20016;-47
2021/12/10 09:28:19;;;;;;;0.00;0.00;;;2.60;99.90;;;;;;5073502;28;20028;-49
2021/12/10 09:30:48;;;;;;;0.00;0.00;;;2.70;99.90;;;;;;5073615;28;20043;-50
2021/12/10 09:33:13;;;;;;;0.00;0.00;;;2.90;99.90;;;;;;5073282;28;20017;-49
2021/12/10 09:35:40;;;;;;;0.00;0.00;;;3.00;99.90;;;;;;5073431;28;20082;-48
2021/12/10 09:38:06;;;;;;;0.00;0.00;;;3.10;99.90;;;;;;5073228;28;20037;-49
2021/12/10 09:40:37;;;;;;;0.40;0.40;;;3.30;99.90;;;;;;5072975;28;20388;-46
2021/12/10 09:43:05;;;;;;;0.00;0.00;;;3.30;99.90;;;;;;5072826;28;20353;-46
2021/12/10 09:45:33;;;;;;;0.10;0.10;;;3.10;99.90;;;;;;5073212;28;20161;-49
2021/12/10 09:47:59;;;;;;;0.00;0.00;;;2.80;99.90;;;;;;5072476;28;20025;-48
2021/12/10 09:50:29;;;;;;;0.00;0.00;;;2.40;99.90;;;;;;5072732;28;20033;-48
2021/12/10 09:52:55;;;;;;;0.00;0.00;;;2.30;99.90;;;;;;5072610;28;20234;-48
2021/12/10 09:55:21;;;;;;;0.00;0.00;;;2.50;99.90;;;;;;5072380;28;20035;-47
2021/12/10 09:57:51;;;;;;;0.08;0.08;;;2.50;99.90;;;;;;5072618;28;20073;-50
2021/12/10 10:00:25;;;;;;;0.00;0.00;;;2.40;99.90;;;;;;5072811;28;20031;-46
2021/12/10 10:02:51;;;;;;;0.00;0.00;;;2.30;99.90;;;;;;5072543;28;20134;-50
2021/12/10 10:05:18;;;;;;;0.03;0.03;;;2.20;99.90;;;;;;5072781;28;20040;-47
2021/12/10 10:07:50;;;;;;;0.38;0.38;;;2.30;99.90;;;;;;5072446;28;20036;-49
2021/12/10 10:10:18;;;;;;;2.35;2.22;;;2.40;99.90;;;;;;5073038;28;20024;-50
2021/12/10 10:12:46;;;;;;;0.70;0.65;;;2.50;99.90;;;;;;5072577;28;20035;-47
2021/12/10 10:15:17;;;;;;;0.15;0.10;;;2.60;99.90;;;;;;5072733;28;20094;-47
2021/12/10 10:17:43;;;;;;;0.40;0.30;;;2.70;99.90;;;;;;5072559;28;20032;-47
2021/12/10 10:20:12;;;;;;;0.00;0.00;;;2.80;99.90;;;;;;5072385;28;20518;-46
2021/12/10 10:22:38;;;;;;;0.00;0.00;;;2.90;99.90;;;;;;5072308;28;20111;-50
2021/12/10 10:25:08;;;;;;;0.00;0.00;;;2.90;99.90;;;;;;5072570;28;20062;-50
2021/12/10 10:27:35;;;;;;;0.47;0.47;;;2.90;99.90;;;;;;5072211;28;20032;-46
2021/12/10 10:30:22;;;;;;;0.00;0.00;;;2.90;99.90;;;;;;5072075;28;20031;-48
2021/12/10 10:32:49;;;;;;;0.00;0.00;;;2.90;99.90;;;;;;5072159;28;20471;-50
2021/12/10 10:35:21;;;;;;;0.95;0.75;;;3.10;99.90;;;;;;5072115;28;20032;-47
2021/12/10 10:37:47;;;;;;;0.80;0.80;;;3.30;99.90;;;;;;5072452;28;20068;-46
2021/12/10 10:40:21;;;;;;;0.00;0.00;;;3.10;99.90;;;;;;5071938;28;20020;-45
2021/12/10 10:42:48;;;;;;;0.00;0.00;;;3.10;99.90;;;;;;5088538;28;20366;-47
2021/12/10 10:45:20;;;;;;;0.20;0.20;;;3.20;99.90;;;;;;5072035;28;20448;-47
2021/12/10 10:47:47;;;;;;;0.00;0.00;;;3.30;99.90;;;;;;5054347;28;20032;-50
2021/12/10 10:50:13;;;;;;;0.00;0.00;;;3.30;99.90;;;;;;5072316;28;20116;-49
2021/12/10 10:52:43;;;;;;;0.00;0.00;;;3.40;99.90;;;;;;5072336;28;20047;-49
2021/12/10 10:55:12;;;;;;;0.00;0.00;;;3.40;99.90;;;;;;5071891;28;20471;-47
2021/12/10 10:57:46;;;;;;;0.00;0.00;;;3.50;99.90;;;;;;5071720;28;20066;-46
2021/12/10 11:00:37;;;;;;;0.00;0.00;;;3.50;99.90;;;;;;5074190;28;20031;-46
2021/12/10 11:03:09;;;;;;;0.70;0.30;;;3.50;99.90;;;;;;5068306;28;20076;-49
2021/12/10 11:05:43;;;;;;;0.00;0.00;;;3.60;99.90;;;;;;5075369;28;20036;-47
2021/12/10 11:08:09;;;;;;;0.00;0.00;;;3.70;99.90;;;;;;5075623;28;20033;-49
2021/12/10 11:10:40;;;;;;;0.00;0.00;;;3.90;99.90;;;;;;5075540;28;20035;-47
2021/12/10 11:13:13;;;;;;;0.00;0.00;;;3.90;99.90;;;;;;5075652;28;20029;-46
2021/12/10 11:15:52;;;;;;;0.00;0.00;;;3.90;99.90;;;;;;5075855;28;20025;-48
2021/12/10 11:18:18;;;;;;;0.00;0.00;;;3.90;99.90;;;;;;5075717;28;20044;-48
2021/12/10 11:20:46;;;;;;;0.00;0.00;;;4.00;99.90;;;;;;5075415;28;20401;-49
2021/12/10 11:23:15;;;;;;;0.00;0.00;;;4.20;99.90;;;;;;5075144;28;20121;-47
2021/12/10 11:25:49;;;;;;;0.10;0.10;;;4.20;99.90;;;;;;5075114;28;20113;-45
2021/12/10 11:28:17;;;;;;;0.00;0.00;;;4.50;99.90;;;;;;5075652;28;20107;-48
2021/12/10 11:30:47;;;;;;;0.00;0.00;;;4.50;99.90;;;;;;5075546;28;20020;-47
2021/12/10 11:33:22;;;;;;;0.00;0.00;;;4.40;99.90;;;;;;5075374;28;20024;-48
2021/12/10 11:35:52;;;;;;;0.00;0.00;;;4.50;99.90;;;;;;5075461;28;20052;-47
2021/12/10 11:38:25;;;;;;;0.00;0.00;;;4.60;99.90;;;;;;5075000;28;20446;-46
2021/12/10 11:40:59;;;;;;;0.20;0.17;;;4.60;99.90;;;;;;5075058;28;20481;-46
2021/12/10 11:44:06;;;;;;;0.00;0.00;;;4.60;99.90;;;;;;5075334;28;20032;-48
2021/12/10 11:47:13;;;;;;;0.00;0.00;;;4.70;99.90;;;;;;5074947;28;20052;-49
2021/12/10 11:49:40;;;;;;;0.00;0.00;;;4.60;99.90;;;;;;5075003;28;20029;-49
2021/12/10 11:52:08;;;;;;;0.00;0.00;;;4.50;99.90;;;;;;5075063;28;20024;-47
2021/12/10 11:54:40;;;;;;;0.00;0.00;;;4.60;99.90;;;;;;5074556;28;20032;-50
2021/12/10 11:57:14;;;;;;;0.00;0.00;;;4.40;99.90;;;;;;5056738;28;20020;-49
2021/12/10 11:59:51;;;;;;;0.00;0.00;;;4.60;99.90;;;;;;5074700;28;20037;-48
2021/12/10 12:02:25;;;;;;;0.00;0.00;;;4.60;99.90;;;;;;5075056;28;20025;-46
2021/12/10 12:05:00;;;;;;;0.00;0.00;;;4.60;99.90;;;;;;5074817;28;20044;-47
2021/12/10 12:07:40;;;;;;;0.20;0.20;;;4.50;99.90;;;;;;5074646;28;20020;-47
2021/12/10 12:10:37;;;;;;;0.00;0.00;;;4.60;99.90;;;;;;5074193;28;20493;-49
2021/12/10 12:16:04;;;;;;;0.00;0.00;;;4.40;99.90;;;;;;5074598;28;20047;-51
2021/12/10 12:18:52;;;;;;;8.88;3.63;;;4.40;99.90;;;;;;5073864;28;20120;-46
2021/12/10 12:27:14;;;;;;;0.00;0.00;;;4.50;99.90;;;;;;5073973;28;20078;-48
2021/12/10 12:29:47;;;;;;;0.00;0.00;;;4.60;99.90;;;;;;5090035;28;20360;-48
2021/12/10 12:32:17;;;;;;;0.00;0.00;;;4.70;99.90;;;;;;5073900;28;20467;-46
2021/12/10 12:34:43;;;;;;;0.00;0.00;;;4.80;99.90;;;;;;5073590;28;20036;-47
2021/12/10 12:37:11;;;;;;;0.00;0.00;;;4.90;99.90;;;;;;5073963;28;20040;-51
2021/12/10 12:39:39;;;;;;;0.00;0.00;;;5.00;99.90;;;;;;5073793;28;20039;-50
2021/12/10 12:42:43;;;;;;;0.00;0.00;;;5.00;99.90;;;;;;5073824;28;20122;-46
2021/12/10 12:45:14;;;;;;;0.00;0.00;;;5.10;99.90;;;;;;5070270;28;20122;-51
2021/12/10 12:47:47;;;;;;;0.00;0.00;;;5.20;99.90;;;;;;5072295;28;20060;-47
2021/12/10 12:50:23;;;;;;;0.00;0.00;;;5.20;99.90;;;;;;5073984;28;20036;-46
2021/12/10 12:53:05;;;;;;;0.00;0.00;;;5.20;99.90;;;;;;5073794;28;20059;-47
2021/12/10 12:55:49;;;;;;;0.00;0.00;;;5.20;99.90;;;;;;5073144;28;20454;-48
2021/12/10 12:58:22;;;;;;;0.00;0.00;;;5.20;99.90;;;;;;5073228;28;20068;-45
2021/12/10 13:01:06;;;;;;;0.00;0.00;;;5.00;99.90;;;;;;5074098;28;20024;-47
2021/12/10 13:03:47;;;;;;;0.00;0.00;;;5.00;99.90;;;;;;5085867;28;20049;-45
2021/12/10 13:06:24;;;;;;;0.00;0.00;;;4.90;99.90;;;;;;5073569;28;20323;-51
2021/12/10 13:09:13;;;;;;;0.00;0.00;;;4.80;99.90;;;;;;5073626;28;20056;-47
2021/12/10 13:12:39;;;;;;;0.00;0.00;;;4.60;99.90;;;;;;5073374;28;20021;-49
2021/12/10 13:14:51;;;;;;;0.00;0.00;;;4.60;99.90;;;;;;5059045;28;20037;-48
2021/12/10 13:17:26;;;;;;;0.00;0.00;;;4.40;99.90;;;;;;5073244;28;20048;-46
2021/12/10 13:19:54;;;;;;;0.00;0.00;;;4.20;99.90;;;;;;5073237;28;20036;-48
2021/12/10 13:22:25;;;;;;;3.40;0.70;;;4.00;99.90;;;;;;5072320;28;20021;-49
2021/12/10 13:24:53;;;;;;;0.38;0.13;;;3.70;99.90;;;;;;5054773;28;20031;-49
2021/12/10 13:27:23;;;;;;;0.90;0.88;;;3.40;99.90;;;;;;5072739;28;20035;-49